sensor_id;sensor_type;location;lat;lon;timestamp;pressure;altitude;pressure_sealevel;temperature;humidity
30873;BME280;17579;42.690;2.586;2022-10-30T00:00:31;97604.50;;;19.16;68.98
30873;BME280;17579;42.690;2.586;2022-10-30T00:02:56;97606.31;;;19.09;68.67
30873;BME280;17579;42.690;2.586;2022-10-30T00:05:22;97602.72;;;19.02;68.59
30873;BME280;17579;42.690;2.586;2022-10-30T00:07:48;97597.13;;;18.97;68.91
30873;BME280;17579;42.690;2.586;2022-10-30T00:10:15;97593.16;;;18.93;68.92
30873;BME280;17579;42.690;2.586;2022-10-30T00:12:40;97592.53;;;18.91;69.02
30873;BME280;17579;42.690;2.586;2022-10-30T00:15:07;97590.00;;;18.89;68.43
30873;BME280;17579;42.690;2.586;2022-10-30T00:17:33;97589.53;;;18.85;68.48
30873;BME280;17579;42.690;2.586;2022-10-30T00:19:58;97591.59;;;18.83;68.42
30873;BME280;17579;42.690;2.586;2022-10-30T00:22:24;97587.63;;;18.79;68.74
30873;BME280;17579;42.690;2.586;2022-10-30T00:24:49;97590.69;;;18.76;68.23
30873;BME280;17579;42.690;2.586;2022-10-30T00:27:15;97593.53;;;18.75;67.78
30873;BME280;17579;42.690;2.586;2022-10-30T00:29:40;97585.06;;;18.71;68.06
30873;BME280;17579;42.690;2.586;2022-10-30T00:32:06;97584.78;;;18.66;67.58
30873;BME280;17579;42.690;2.586;2022-10-30T00:34:32;97582.66;;;18.61;67.84
30873;BME280;17579;42.690;2.586;2022-10-30T00:36:57;97576.41;;;18.54;67.51
30873;BME280;17579;42.690;2.586;2022-10-30T00:39:23;97579.00;;;18.47;67.68
30873;BME280;17579;42.690;2.586;2022-10-30T00:41:48;97575.88;;;18.44;68.18
30873;BME280;17579;42.690;2.586;2022-10-30T00:47:29;97583.63;;;18.39;68.42
30873;BME280;17579;42.690;2.586;2022-10-30T00:50:25;97585.69;;;18.37;68.58
30873;BME280;17579;42.690;2.586;2022-10-30T00:52:55;97575.41;;;18.40;68.26
30873;BME280;17579;42.690;2.586;2022-10-30T00:55:28;97579.31;;;18.38;67.98
30873;BME280;17579;42.690;2.586;2022-10-30T00:57:57;97578.28;;;18.39;68.15
30873;BME280;17579;42.690;2.586;2022-10-30T01:00:25;97577.66;;;18.37;68.26
30873;BME280;17579;42.690;2.586;2022-10-30T01:02:52;97572.09;;;18.38;68.05
30873;BME280;17579;42.690;2.586;2022-10-30T01:05:20;97579.66;;;18.34;68.40
30873;BME280;17579;42.690;2.586;2022-10-30T01:07:48;97571.81;;;18.33;68.10
30873;BME280;17579;42.690;2.586;2022-10-30T01:10:14;97574.25;;;18.28;68.49
30873;BME280;17579;42.690;2.586;2022-10-30T01:12:41;97568.78;;;18.21;68.87
30873;BME280;17579;42.690;2.586;2022-10-30T01:15:09;97566.69;;;18.16;68.99
30873;BME280;17579;42.690;2.586;2022-10-30T01:20:54;97566.19;;;18.13;68.90
30873;BME280;17579;42.690;2.586;2022-10-30T01:23:52;97566.69;;;18.16;69.14
30873;BME280;17579;42.690;2.586;2022-10-30T01:29:54;97563.72;;;18.11;68.73
30873;BME280;17579;42.690;2.586;2022-10-30T01:38:23;97556.34;;;18.13;69.03
30873;BME280;17579;42.690;2.586;2022-10-30T01:40:51;97553.28;;;18.16;69.61
30873;BME280;17579;42.690;2.586;2022-10-30T01:43:17;97553.72;;;18.20;69.27
30873;BME280;17579;42.690;2.586;2022-10-30T02:00:22;97548.44;;;18.42;69.66
30873;BME280;17579;42.690;2.586;2022-10-30T02:02:49;97556.13;;;18.45;69.96
30873;BME280;17579;42.690;2.586;2022-10-30T02:08:05;97548.84;;;18.60;70.09
30873;BME280;17579;42.690;2.586;2022-10-30T02:10:32;97544.34;;;18.61;69.94
30873;BME280;17579;42.690;2.586;2022-10-30T02:12:59;97550.34;;;18.63;69.38
30873;BME280;17579;42.690;2.586;2022-10-30T02:15:25;97543.31;;;18.62;69.69
30873;BME280;17579;42.690;2.586;2022-10-30T02:17:51;97537.13;;;18.61;69.76
30873;BME280;17579;42.690;2.586;2022-10-30T02:20:18;97536.50;;;18.59;69.70
30873;BME280;17579;42.690;2.586;2022-10-30T02:22:44;97537.78;;;18.63;69.92
30873;BME280;17579;42.690;2.586;2022-10-30T02:25:10;97539.25;;;18.66;69.44
30873;BME280;17579;42.690;2.586;2022-10-30T02:27:36;97530.00;;;18.68;69.50
30873;BME280;17579;42.690;2.586;2022-10-30T02:30:02;97527.78;;;18.72;69.71
30873;BME280;17579;42.690;2.586;2022-10-30T02:32:28;97532.75;;;18.75;69.26
30873;BME280;17579;42.690;2.586;2022-10-30T02:34:54;97523.88;;;18.75;69.66
30873;BME280;17579;42.690;2.586;2022-10-30T02:37:19;97530.06;;;18.75;69.71
30873;BME280;17579;42.690;2.586;2022-10-30T02:39:46;97521.84;;;18.77;69.71
30873;BME280;17579;42.690;2.586;2022-10-30T02:42:11;97520.44;;;18.81;69.49
30873;BME280;17579;42.690;2.586;2022-10-30T02:44:37;97522.94;;;18.82;69.33
30873;BME280;17579;42.690;2.586;2022-10-30T02:47:02;97517.38;;;18.84;69.07
30873;BME280;17579;42.690;2.586;2022-10-30T02:49:28;97519.03;;;18.85;69.37
30873;BME280;17579;42.690;2.586;2022-10-30T02:51:53;97519.88;;;18.85;69.34
30873;BME280;17579;42.690;2.586;2022-10-30T02:54:19;97519.50;;;18.89;68.85
30873;BME280;17579;42.690;2.586;2022-10-30T02:56:44;97520.97;;;18.91;69.01
30873;BME280;17579;42.690;2.586;2022-10-30T02:59:10;97509.44;;;18.91;68.98
30873;BME280;17579;42.690;2.586;2022-10-30T03:01:35;97508.41;;;18.92;68.90
30873;BME280;17579;42.690;2.586;2022-10-30T03:04:01;97512.13;;;18.91;68.70
30873;BME280;17579;42.690;2.586;2022-10-30T03:06:26;97509.44;;;18.91;68.75
30873;BME280;17579;42.690;2.586;2022-10-30T03:08:51;97508.59;;;18.90;69.08
30873;BME280;17579;42.690;2.586;2022-10-30T03:11:18;97502.59;;;18.88;68.71
30873;BME280;17579;42.690;2.586;2022-10-30T03:13:45;97503.44;;;18.89;68.24
30873;BME280;17579;42.690;2.586;2022-10-30T03:16:17;97508.97;;;18.87;68.56
30873;BME280;17579;42.690;2.586;2022-10-30T03:18:43;97507.28;;;18.86;68.49
30873;BME280;17579;42.690;2.586;2022-10-30T03:21:12;97509.34;;;18.84;68.07
30873;BME280;17579;42.690;2.586;2022-10-30T03:23:38;97518.78;;;18.80;68.29
30873;BME280;17579;42.690;2.586;2022-10-30T03:26:05;97514.00;;;18.75;67.87
30873;BME280;17579;42.690;2.586;2022-10-30T03:28:31;97512.06;;;18.69;68.29
30873;BME280;17579;42.690;2.586;2022-10-30T03:31:08;97508.66;;;18.60;68.23
30873;BME280;17579;42.690;2.586;2022-10-30T03:33:35;97504.16;;;18.61;67.81
30873;BME280;17579;42.690;2.586;2022-10-30T03:36:01;97503.91;;;18.56;68.12
30873;BME280;17579;42.690;2.586;2022-10-30T03:38:27;97506.75;;;18.54;68.33
30873;BME280;17579;42.690;2.586;2022-10-30T03:40:53;97509.44;;;18.54;67.89
30873;BME280;17579;42.690;2.586;2022-10-30T03:43:19;97510.25;;;18.55;68.21
30873;BME280;17579;42.690;2.586;2022-10-30T03:45:46;97503.25;;;18.53;68.24
30873;BME280;17579;42.690;2.586;2022-10-30T03:48:12;97509.06;;;18.57;68.35
30873;BME280;17579;42.690;2.586;2022-10-30T03:50:37;97513.22;;;18.60;68.03
30873;BME280;17579;42.690;2.586;2022-10-30T03:53:03;97509.13;;;18.64;68.39
30873;BME280;17579;42.690;2.586;2022-10-30T03:55:28;97512.44;;;18.66;67.91
30873;BME280;17579;42.690;2.586;2022-10-30T03:57:54;97515.97;;;18.66;67.71
30873;BME280;17579;42.690;2.586;2022-10-30T04:00:19;97516.16;;;18.65;67.66
30873;BME280;17579;42.690;2.586;2022-10-30T04:02:47;97512.44;;;18.66;68.05
30873;BME280;17579;42.690;2.586;2022-10-30T04:05:15;97521.34;;;18.66;67.58
30873;BME280;17579;42.690;2.586;2022-10-30T04:07:41;97520.28;;;18.67;67.56
30873;BME280;17579;42.690;2.586;2022-10-30T04:10:08;97522.97;;;18.67;67.70
30873;BME280;17579;42.690;2.586;2022-10-30T04:12:33;97519.28;;;18.68;68.02
30873;BME280;17579;42.690;2.586;2022-10-30T04:14:59;97521.75;;;18.70;67.40
30873;BME280;17579;42.690;2.586;2022-10-30T04:17:24;97525.66;;;18.67;68.00
30873;BME280;17579;42.690;2.586;2022-10-30T04:19:50;97525.66;;;18.67;67.98
30873;BME280;17579;42.690;2.586;2022-10-30T04:22:15;97524.41;;;18.63;67.36
30873;BME280;17579;42.690;2.586;2022-10-30T04:24:41;97520.81;;;18.56;67.89
30873;BME280;17579;42.690;2.586;2022-10-30T04:27:06;97533.31;;;18.49;67.65
30873;BME280;17579;42.690;2.586;2022-10-30T04:29:31;97531.34;;;18.43;67.70
30873;BME280;17579;42.690;2.586;2022-10-30T04:31:57;97527.59;;;18.37;68.23
30873;BME280;17579;42.690;2.586;2022-10-30T04:34:23;97529.81;;;18.33;68.27
30873;BME280;17579;42.690;2.586;2022-10-30T04:36:48;97525.66;;;18.31;68.08
30873;BME280;17579;42.690;2.586;2022-10-30T04:39:14;97525.28;;;18.34;68.13
30873;BME280;17579;42.690;2.586;2022-10-30T04:41:39;97518.44;;;18.31;67.87
30873;BME280;17579;42.690;2.586;2022-10-30T04:44:06;97515.16;;;18.29;68.00
30873;BME280;17579;42.690;2.586;2022-10-30T04:46:31;97515.53;;;18.26;67.53
30873;BME280;17579;42.690;2.586;2022-10-30T04:48:57;97513.56;;;18.20;68.09
30873;BME280;17579;42.690;2.586;2022-10-30T04:51:22;97509.06;;;18.21;67.88
30873;BME280;17579;42.690;2.586;2022-10-30T04:53:48;97515.53;;;18.26;68.16
30873;BME280;17579;42.690;2.586;2022-10-30T04:56:13;97514.31;;;18.29;67.90
30873;BME280;17579;42.690;2.586;2022-10-30T04:58:39;97508.97;;;18.29;67.93
30873;BME280;17579;42.690;2.586;2022-10-30T05:01:05;97513.03;;;18.25;67.52
30873;BME280;17579;42.690;2.586;2022-10-30T05:03:32;97505.53;;;18.20;67.39
30873;BME280;17579;42.690;2.586;2022-10-30T05:06:03;97507.31;;;18.13;67.92
30873;BME280;17579;42.690;2.586;2022-10-30T05:08:30;97495.78;;;18.12;67.73
30873;BME280;17579;42.690;2.586;2022-10-30T05:10:55;97505.19;;;18.08;67.86
30873;BME280;17579;42.690;2.586;2022-10-30T05:13:21;97495.88;;;18.04;67.65
30873;BME280;17579;42.690;2.586;2022-10-30T05:15:46;97491.09;;;17.99;67.42
30873;BME280;17579;42.690;2.586;2022-10-30T05:18:12;97495.53;;;17.92;66.99
30873;BME280;17579;42.690;2.586;2022-10-30T05:20:37;97491.53;;;17.88;67.20
30873;BME280;17579;42.690;2.586;2022-10-30T05:23:03;97486.75;;;17.83;67.30
30873;BME280;17579;42.690;2.586;2022-10-30T05:25:29;97479.28;;;17.79;67.32
30873;BME280;17579;42.690;2.586;2022-10-30T05:28:02;97482.53;;;17.74;67.38
30873;BME280;17579;42.690;2.586;2022-10-30T05:30:30;97481.66;;;17.74;66.66
30873;BME280;17579;42.690;2.586;2022-10-30T05:33:00;97488.78;;;17.66;67.23
30873;BME280;17579;42.690;2.586;2022-10-30T05:35:27;97489.63;;;17.67;66.71
30873;BME280;17579;42.690;2.586;2022-10-30T05:37:53;97489.34;;;17.62;66.86
30873;BME280;17579;42.690;2.586;2022-10-30T05:40:18;97492.19;;;17.60;67.30
30873;BME280;17579;42.690;2.586;2022-10-30T05:42:45;97489.88;;;17.57;66.83
30873;BME280;17579;42.690;2.586;2022-10-30T05:45:10;97479.56;;;17.54;67.18
30873;BME280;17579;42.690;2.586;2022-10-30T05:47:36;97476.22;;;17.52;66.89
30873;BME280;17579;42.690;2.586;2022-10-30T05:50:02;97473.94;;;17.49;66.90
30873;BME280;17579;42.690;2.586;2022-10-30T05:52:28;97474.28;;;17.46;66.36
30873;BME280;17579;42.690;2.586;2022-10-30T05:54:54;97462.31;;;17.42;66.14
30873;BME280;17579;42.690;2.586;2022-10-30T05:57:19;97465.72;;;17.36;65.93
30873;BME280;17579;42.690;2.586;2022-10-30T05:59:45;97465.78;;;17.27;65.14
30873;BME280;17579;42.690;2.586;2022-10-30T06:02:10;97469.53;;;17.18;64.97
30873;BME280;17579;42.690;2.586;2022-10-30T06:04:36;97468.97;;;17.08;64.55
30873;BME280;17579;42.690;2.586;2022-10-30T06:07:01;97468.22;;;16.99;64.82
30873;BME280;17579;42.690;2.586;2022-10-30T06:09:27;97461.94;;;16.92;64.94
30873;BME280;17579;42.690;2.586;2022-10-30T06:11:52;97463.31;;;16.88;65.37
30873;BME280;17579;42.690;2.586;2022-10-30T06:14:18;97467.50;;;16.82;65.33
30873;BME280;17579;42.690;2.586;2022-10-30T06:16:43;97458.03;;;16.79;65.39
30873;BME280;17579;42.690;2.586;2022-10-30T06:19:09;97472.38;;;16.78;65.87
30873;BME280;17579;42.690;2.586;2022-10-30T06:21:34;97474.38;;;16.76;66.02
30873;BME280;17579;42.690;2.586;2022-10-30T06:24:00;97474.56;;;16.75;65.82
30873;BME280;17579;42.690;2.586;2022-10-30T06:26:25;97475.97;;;16.71;65.82
30873;BME280;17579;42.690;2.586;2022-10-30T06:28:51;97465.78;;;16.66;66.10
30873;BME280;17579;42.690;2.586;2022-10-30T06:31:17;97472.16;;;16.65;66.25
30873;BME280;17579;42.690;2.586;2022-10-30T06:33:42;97474.47;;;16.68;66.38
30873;BME280;17579;42.690;2.586;2022-10-30T06:36:07;97478.97;;;16.68;66.46
30873;BME280;17579;42.690;2.586;2022-10-30T06:38:33;97487.63;;;16.70;66.26
30873;BME280;17579;42.690;2.586;2022-10-30T06:40:58;97485.59;;;16.72;66.07
30873;BME280;17579;42.690;2.586;2022-10-30T06:43:24;97483.13;;;16.70;65.82
30873;BME280;17579;42.690;2.586;2022-10-30T06:45:50;97487.16;;;16.66;66.11
30873;BME280;17579;42.690;2.586;2022-10-30T06:48:15;97485.66;;;16.63;66.21
30873;BME280;17579;42.690;2.586;2022-10-30T06:50:43;97493.84;;;16.62;66.56
30873;BME280;17579;42.690;2.586;2022-10-30T06:53:08;97495.88;;;16.60;66.62
30873;BME280;17579;42.690;2.586;2022-10-30T06:55:34;97502.03;;;16.60;67.13
30873;BME280;17579;42.690;2.586;2022-10-30T06:57:59;97505.56;;;16.61;67.25
30873;BME280;17579;42.690;2.586;2022-10-30T07:00:25;97512.22;;;16.65;67.18
30873;BME280;17579;42.690;2.586;2022-10-30T07:03:00;97514.22;;;16.63;67.40
30873;BME280;17579;42.690;2.586;2022-10-30T07:05:26;97516.66;;;16.73;67.27
30873;BME280;17579;42.690;2.586;2022-10-30T07:07:55;97521.81;;;16.74;67.51
30873;BME280;17579;42.690;2.586;2022-10-30T07:10:20;97528.84;;;16.75;68.02
30873;BME280;17579;42.690;2.586;2022-10-30T07:12:53;97523.50;;;16.75;68.06
30873;BME280;17579;42.690;2.586;2022-10-30T07:15:19;97532.91;;;16.86;68.27
30873;BME280;17579;42.690;2.586;2022-10-30T07:17:57;97529.59;;;16.92;68.53
30873;BME280;17579;42.690;2.586;2022-10-30T07:20:26;97521.78;;;17.06;68.43
30873;BME280;17579;42.690;2.586;2022-10-30T07:22:52;97526.03;;;17.15;68.57
30873;BME280;17579;42.690;2.586;2022-10-30T07:25:18;97528.84;;;17.22;68.66
30873;BME280;17579;42.690;2.586;2022-10-30T07:27:45;97535.59;;;17.33;68.86
30873;BME280;17579;42.690;2.586;2022-10-30T07:30:13;97539.97;;;17.48;68.68
30873;BME280;17579;42.690;2.586;2022-10-30T07:32:39;97544.50;;;17.63;68.71
30873;BME280;17579;42.690;2.586;2022-10-30T07:35:05;97550.22;;;17.75;68.53
30873;BME280;17579;42.690;2.586;2022-10-30T07:37:31;97551.34;;;17.80;68.20
30873;BME280;17579;42.690;2.586;2022-10-30T07:39:57;97548.28;;;17.83;67.36
30873;BME280;17579;42.690;2.586;2022-10-30T07:42:22;97553.81;;;17.82;67.51
30873;BME280;17579;42.690;2.586;2022-10-30T07:44:48;97542.09;;;17.83;67.92
30873;BME280;17579;42.690;2.586;2022-10-30T07:47:13;97552.25;;;17.88;67.23
30873;BME280;17579;42.690;2.586;2022-10-30T07:49:39;97550.03;;;17.76;67.60
30873;BME280;17579;42.690;2.586;2022-10-30T07:52:05;97555.56;;;17.75;67.70
30873;BME280;17579;42.690;2.586;2022-10-30T07:54:30;97557.94;;;17.70;67.62
30873;BME280;17579;42.690;2.586;2022-10-30T07:56:56;97553.34;;;17.78;67.47
30873;BME280;17579;42.690;2.586;2022-10-30T07:59:23;97558.16;;;17.83;67.36
30873;BME280;17579;42.690;2.586;2022-10-30T08:01:49;97554.75;;;17.89;67.19
30873;BME280;17579;42.690;2.586;2022-10-30T08:04:15;97562.72;;;17.97;66.82
30873;BME280;17579;42.690;2.586;2022-10-30T08:06:41;97560.31;;;18.03;67.17
30873;BME280;17579;42.690;2.586;2022-10-30T08:09:06;97557.72;;;18.09;66.53
30873;BME280;17579;42.690;2.586;2022-10-30T08:11:32;97557.81;;;18.16;66.53
30873;BME280;17579;42.690;2.586;2022-10-30T08:13:58;97566.69;;;18.16;66.64
30873;BME280;17579;42.690;2.586;2022-10-30T08:16:23;97568.34;;;18.17;66.36
30873;BME280;17579;42.690;2.586;2022-10-30T08:18:49;97580.97;;;18.24;66.47
30873;BME280;17579;42.690;2.586;2022-10-30T08:21:15;97568.69;;;18.29;66.05
30873;BME280;17579;42.690;2.586;2022-10-30T08:23:40;97566.56;;;18.40;66.36
30873;BME280;17579;42.690;2.586;2022-10-30T08:26:06;97566.44;;;18.48;65.88
30873;BME280;17579;42.690;2.586;2022-10-30T08:28:32;97567.28;;;18.48;65.74
30873;BME280;17579;42.690;2.586;2022-10-30T08:30:59;97578.19;;;18.47;65.98
30873;BME280;17579;42.690;2.586;2022-10-30T08:33:25;97580.66;;;18.48;65.37
30873;BME280;17579;42.690;2.586;2022-10-30T08:35:54;97577.25;;;18.40;65.42
30873;BME280;17579;42.690;2.586;2022-10-30T08:38:21;97585.41;;;18.46;65.81
30873;BME280;17579;42.690;2.586;2022-10-30T08:40:47;97580.41;;;18.43;65.75
30873;BME280;17579;42.690;2.586;2022-10-30T08:43:13;97592.66;;;18.52;65.81
30873;BME280;17579;42.690;2.586;2022-10-30T08:45:39;97584.53;;;18.61;65.61
30873;BME280;17579;42.690;2.586;2022-10-30T08:48:04;97586.53;;;18.74;65.99
30873;BME280;17579;42.690;2.586;2022-10-30T08:50:32;97586.78;;;18.79;65.12
30873;BME280;17579;42.690;2.586;2022-10-30T08:53:02;97579.22;;;18.82;65.26
30873;BME280;17579;42.690;2.586;2022-10-30T08:55:29;97585.88;;;18.86;65.30
30873;BME280;17579;42.690;2.586;2022-10-30T08:57:55;97582.81;;;18.90;64.90
30873;BME280;17579;42.690;2.586;2022-10-30T09:00:21;97589.28;;;18.95;64.89
30873;BME280;17579;42.690;2.586;2022-10-30T09:02:47;97582.50;;;18.99;64.74
30873;BME280;17579;42.690;2.586;2022-10-30T09:05:12;97587.09;;;19.06;64.48
30873;BME280;17579;42.690;2.586;2022-10-30T09:07:38;97588.56;;;19.08;63.95
30873;BME280;17579;42.690;2.586;2022-10-30T09:10:04;97580.72;;;19.07;63.43
30873;BME280;17579;42.690;2.586;2022-10-30T09:12:30;97580.25;;;19.03;63.60
30873;BME280;17579;42.690;2.586;2022-10-30T09:14:55;97575.56;;;19.05;63.74
30873;BME280;17579;42.690;2.586;2022-10-30T09:17:21;97578.28;;;19.12;63.31
30873;BME280;17579;42.690;2.586;2022-10-30T09:19:46;97579.38;;;19.17;63.42
30873;BME280;17579;42.690;2.586;2022-10-30T09:22:12;97580.25;;;19.25;62.92
30873;BME280;17579;42.690;2.586;2022-10-30T09:24:38;97578.03;;;19.28;63.18
30873;BME280;17579;42.690;2.586;2022-10-30T09:27:04;97574.84;;;19.39;63.42
30873;BME280;17579;42.690;2.586;2022-10-30T09:29:30;97565.69;;;19.55;63.11
30873;BME280;17579;42.690;2.586;2022-10-30T09:31:56;97558.50;;;19.63;62.48
30873;BME280;17579;42.690;2.586;2022-10-30T09:34:22;97559.38;;;19.70;62.20
30873;BME280;17579;42.690;2.586;2022-10-30T09:36:48;97559.88;;;19.80;61.67
30873;BME280;17579;42.690;2.586;2022-10-30T09:39:14;97568.38;;;19.84;61.80
30873;BME280;17579;42.690;2.586;2022-10-30T09:47:52;97555.47;;;20.01;61.85
30873;BME280;17579;42.690;2.586;2022-10-30T09:53:36;97560.63;;;19.96;61.28
30873;BME280;17579;42.690;2.586;2022-10-30T09:56:13;97559.75;;;19.95;60.72
30873;BME280;17579;42.690;2.586;2022-10-30T09:59:09;97563.31;;;19.96;61.41
30873;BME280;17579;42.690;2.586;2022-10-30T10:04:34;97567.50;;;20.12;60.87
30873;BME280;17579;42.690;2.586;2022-10-30T10:07:19;97560.31;;;20.19;60.08
30873;BME280;17579;42.690;2.586;2022-10-30T10:09:46;97564.06;;;20.24;59.62
30873;BME280;17579;42.690;2.586;2022-10-30T10:12:45;97562.00;;;20.27;59.82
30873;BME280;17579;42.690;2.586;2022-10-30T10:15:43;97570.72;;;20.35;59.68
30873;BME280;17579;42.690;2.586;2022-10-30T10:18:22;97564.38;;;20.43;59.21
30873;BME280;17579;42.690;2.586;2022-10-30T10:20:52;97567.75;;;20.65;59.36
30873;BME280;17579;42.690;2.586;2022-10-30T10:23:26;97566.81;;;20.86;57.85
30873;BME280;17579;42.690;2.586;2022-10-30T10:25:57;97569.94;;;20.97;56.61
30873;BME280;17579;42.690;2.586;2022-10-30T10:28:41;97570.56;;;21.05;57.06
30873;BME280;17579;42.690;2.586;2022-10-30T10:31:45;97570.78;;;21.17;57.02
30873;BME280;17579;42.690;2.586;2022-10-30T10:37:29;97571.41;;;21.19;57.25
30873;BME280;17579;42.690;2.586;2022-10-30T10:49:09;97571.25;;;21.61;56.22
30873;BME280;17579;42.690;2.586;2022-10-30T10:51:45;97578.06;;;21.63;55.51
30873;BME280;17579;42.690;2.586;2022-10-30T10:54:20;97566.69;;;21.68;55.37
30873;BME280;17579;42.690;2.586;2022-10-30T10:56:49;97574.53;;;21.76;55.29
30873;BME280;17579;42.690;2.586;2022-10-30T10:59:35;97570.00;;;21.77;55.28
30873;BME280;17579;42.690;2.586;2022-10-30T11:05:30;97567.06;;;21.92;54.71
30873;BME280;17579;42.690;2.586;2022-10-30T11:08:05;97555.66;;;21.96;54.41
30873;BME280;17579;42.690;2.586;2022-10-30T11:10:34;97549.22;;;21.97;53.75
30873;BME280;17579;42.690;2.586;2022-10-30T11:13:00;97553.81;;;21.84;53.57
30873;BME280;17579;42.690;2.586;2022-10-30T11:18:09;97562.31;;;21.34;54.46
30873;BME280;17579;42.690;2.586;2022-10-30T11:23:43;97562.53;;;21.45;55.81
30873;BME280;17579;42.690;2.586;2022-10-30T11:26:30;97551.78;;;21.59;55.62
30873;BME280;17579;42.690;2.586;2022-10-30T11:29:12;97554.25;;;21.74;55.42
30873;BME280;17579;42.690;2.586;2022-10-30T11:31:40;97551.75;;;21.86;54.94
30873;BME280;17579;42.690;2.586;2022-10-30T11:34:28;97541.78;;;21.93;55.13
30873;BME280;17579;42.690;2.586;2022-10-30T11:36:55;97539.69;;;22.02;54.13
30873;BME280;17579;42.690;2.586;2022-10-30T11:39:27;97536.13;;;22.14;54.35
30873;BME280;17579;42.690;2.586;2022-10-30T11:44:47;97536.16;;;22.08;53.57
30873;BME280;17579;42.690;2.586;2022-10-30T11:47:15;97534.69;;;22.12;53.85
30873;BME280;17579;42.690;2.586;2022-10-30T11:49:47;97537.53;;;22.37;53.37
30873;BME280;17579;42.690;2.586;2022-10-30T11:52:17;97536.25;;;22.46;52.89
30873;BME280;17579;42.690;2.586;2022-10-30T11:54:47;97526.69;;;22.51;52.77
30873;BME280;17579;42.690;2.586;2022-10-30T11:57:20;97530.41;;;22.49;52.94
30873;BME280;17579;42.690;2.586;2022-10-30T11:59:47;97522.09;;;22.58;52.53
30873;BME280;17579;42.690;2.586;2022-10-30T12:02:28;97523.56;;;22.54;53.28
30873;BME280;17579;42.690;2.586;2022-10-30T12:05:01;97526.66;;;22.57;52.84
30873;BME280;17579;42.690;2.586;2022-10-30T12:07:31;97515.03;;;22.57;52.31
30873;BME280;17579;42.690;2.586;2022-10-30T12:09:57;97517.72;;;22.63;51.81
30873;BME280;17579;42.690;2.586;2022-10-30T12:12:31;97515.81;;;22.64;52.51
30873;BME280;17579;42.690;2.586;2022-10-30T12:15:19;97507.50;;;22.72;53.11
30873;BME280;17579;42.690;2.586;2022-10-30T12:17:59;97511.75;;;22.87;52.07
30873;BME280;17579;42.690;2.586;2022-10-30T12:20:26;97510.69;;;22.94;51.64
30873;BME280;17579;42.690;2.586;2022-10-30T12:22:53;97505.19;;;23.08;51.12
30873;BME280;17579;42.690;2.586;2022-10-30T12:25:30;97498.34;;;23.12;51.35
30873;BME280;17579;42.690;2.586;2022-10-30T12:28:14;97497.09;;;23.14;49.76
30873;BME280;17579;42.690;2.586;2022-10-30T12:31:05;97491.97;;;22.99;50.87
30873;BME280;17579;42.690;2.586;2022-10-30T12:33:43;97499.06;;;22.94;50.18
30873;BME280;17579;42.690;2.586;2022-10-30T12:38:57;97497.00;;;22.89;50.35
30873;BME280;17579;42.690;2.586;2022-10-30T12:41:30;97502.38;;;22.96;50.08
30873;BME280;17579;42.690;2.586;2022-10-30T12:44:09;97494.28;;;22.96;49.89
30873;BME280;17579;42.690;2.586;2022-10-30T12:46:53;97502.31;;;23.02;50.14
30873;BME280;17579;42.690;2.586;2022-10-30T12:49:28;97501.44;;;23.09;48.98
30873;BME280;17579;42.690;2.586;2022-10-30T12:52:04;97498.34;;;23.05;48.97
30873;BME280;17579;42.690;2.586;2022-10-30T12:54:49;97494.22;;;23.02;49.55
30873;BME280;17579;42.690;2.586;2022-10-30T12:57:20;97493.31;;;23.15;49.19
30873;BME280;17579;42.690;2.586;2022-10-30T13:00:11;97498.25;;;23.18;48.39
30873;BME280;17579;42.690;2.586;2022-10-30T13:05:46;97497.56;;;23.30;49.23
30873;BME280;17579;42.690;2.586;2022-10-30T13:08:35;97499.66;;;23.28;49.04
30873;BME280;17579;42.690;2.586;2022-10-30T13:11:08;97498.28;;;23.44;49.08
30873;BME280;17579;42.690;2.586;2022-10-30T13:13:39;97488.59;;;23.55;48.64
30873;BME280;17579;42.690;2.586;2022-10-30T13:18:47;97496.84;;;23.41;48.23
30873;BME280;17579;42.690;2.586;2022-10-30T13:21:30;97491.44;;;23.41;49.14
30873;BME280;17579;42.690;2.586;2022-10-30T13:24:27;97498.38;;;23.56;48.52
30873;BME280;17579;42.690;2.586;2022-10-30T13:27:12;97500.06;;;23.50;46.96
30873;BME280;17579;42.690;2.586;2022-10-30T13:30:01;97491.06;;;23.38;48.34
30873;BME280;17579;42.690;2.586;2022-10-30T13:32:53;97493.06;;;23.24;47.62
30873;BME280;17579;42.690;2.586;2022-10-30T13:41:29;97488.63;;;22.72;48.58
30873;BME280;17579;42.690;2.586;2022-10-30T13:47:13;97498.38;;;22.73;49.18
30873;BME280;17579;42.690;2.586;2022-10-30T13:49:58;97498.22;;;22.93;48.82
30873;BME280;17579;42.690;2.586;2022-10-30T13:52:31;97491.69;;;23.14;48.26
30873;BME280;17579;42.690;2.586;2022-10-30T13:55:21;97491.59;;;23.21;48.86
30873;BME280;17579;42.690;2.586;2022-10-30T13:58:15;97496.41;;;23.19;48.59
30873;BME280;17579;42.690;2.586;2022-10-30T14:01:01;97501.38;;;23.22;48.79
30873;BME280;17579;42.690;2.586;2022-10-30T14:15:34;97489.16;;;22.88;48.53
30873;BME280;17579;42.690;2.586;2022-10-30T14:18:26;97487.38;;;22.75;48.71
30873;BME280;17579;42.690;2.586;2022-10-30T14:20:53;97492.53;;;22.76;48.46
30873;BME280;17579;42.690;2.586;2022-10-30T14:23:38;97499.72;;;22.89;49.79
30873;BME280;17579;42.690;2.586;2022-10-30T14:26:13;97495.19;;;23.15;50.54
30873;BME280;17579;42.690;2.586;2022-10-30T14:28:44;97492.38;;;23.28;50.86
30873;BME280;17579;42.690;2.586;2022-10-30T14:31:12;97490.53;;;23.29;50.49
30873;BME280;17579;42.690;2.586;2022-10-30T14:33:49;97496.47;;;23.38;50.53
30873;BME280;17579;42.690;2.586;2022-10-30T14:39:27;97492.50;;;23.59;50.52
30873;BME280;17579;42.690;2.586;2022-10-30T14:42:14;97487.50;;;23.62;49.92
30873;BME280;17579;42.690;2.586;2022-10-30T14:51:01;97491.56;;;23.72;50.23
30873;BME280;17579;42.690;2.586;2022-10-30T14:56:48;97494.13;;;23.66;50.17
30873;BME280;17579;42.690;2.586;2022-10-30T14:59:32;97484.22;;;23.79;50.54
30873;BME280;17579;42.690;2.586;2022-10-30T15:07:56;97490.84;;;24.01;49.53
30873;BME280;17579;42.690;2.586;2022-10-30T15:10:35;97487.34;;;24.01;49.38